createdAt,value
2023-03-29T00:00:19.415Z,100754.69
2023-03-29T00:01:42.490Z,100748.44
2023-03-29T00:03:04.321Z,100746.72
2023-03-29T00:04:27.713Z,100742.19
2023-03-29T00:05:49.583Z,100747.50
2023-03-29T00:07:10.347Z,100734.53
2023-03-29T00:08:35.398Z,100733.59
2023-03-29T00:09:56.824Z,100724.38
2023-03-29T00:11:19.117Z,100745.03
2023-03-29T00:12:41.650Z,100742.59
2023-03-29T00:14:02.790Z,100737.47
2023-03-29T00:15:24.953Z,100739.09
2023-03-29T00:16:46.916Z,100738.44
2023-03-29T00:18:09.109Z,100737.41
2023-03-29T00:19:35.710Z,100735.81
2023-03-29T00:20:57.885Z,100735.16
2023-03-29T00:22:19.825Z,100736.94
2023-03-29T00:23:55.967Z,100732.53
2023-03-29T00:25:17.249Z,100735.34
2023-03-29T00:26:39.577Z,100736.00
2023-03-29T00:28:03.320Z,100742.22
2023-03-29T00:29:25.256Z,100739.59
2023-03-29T00:30:47.181Z,100742.16
2023-03-29T00:32:09.432Z,100741.50
2023-03-29T00:33:30.546Z,100728.66
2023-03-29T00:34:52.688Z,100743.28
2023-03-29T00:36:14.771Z,100730.47
2023-03-29T00:37:35.778Z,100739.91
2023-03-29T00:38:59.247Z,100737.16
2023-03-29T00:40:22.208Z,100735.47
2023-03-29T00:41:45.332Z,100740.97
2023-03-29T00:43:10.388Z,100732.16
2023-03-29T00:44:57.364Z,100738.31
2023-03-29T00:46:19.178Z,100737.44
2023-03-29T00:47:46.308Z,100739.25
2023-03-29T00:49:57.135Z,100736.59
2023-03-29T00:51:20.858Z,100726.28
2023-03-29T00:52:44.576Z,100737.66
2023-03-29T00:54:14.739Z,100732.44
2023-03-29T00:55:39.176Z,100732.34
2023-03-29T00:57:04.127Z,100733.19
2023-03-29T00:58:31.781Z,100724.50
2023-03-29T00:59:54.971Z,100725.47
2023-03-29T01:01:26.127Z,100715.91
2023-03-29T01:02:54.604Z,100723.56
2023-03-29T01:04:21.982Z,100724.31
2023-03-29T01:05:48.954Z,100724.41
2023-03-29T01:07:21.514Z,100718.28
2023-03-29T01:08:48.020Z,100725.25
2023-03-29T01:10:15.694Z,100718.28
2023-03-29T01:11:43.294Z,100717.44
2023-03-29T01:13:10.780Z,100710.31
2023-03-29T01:14:36.112Z,100712.13
2023-03-29T01:16:00.644Z,100700.66
2023-03-29T01:17:25.633Z,100701.53
2023-03-29T01:18:48.287Z,100705.25
2023-03-29T01:20:15.091Z,100710.41
2023-03-29T01:21:42.612Z,100706.09
2023-03-29T01:23:21.416Z,100701.63
2023-03-29T01:25:00.377Z,100702.59
2023-03-29T01:26:32.628Z,100702.59
2023-03-29T01:28:02.498Z,100695.69
2023-03-29T01:29:28.023Z,100699.94
2023-03-29T01:30:56.253Z,100700.88
2023-03-29T01:32:23.677Z,100708.81
2023-03-29T01:33:51.068Z,100698.22
2023-03-29T01:35:16.523Z,100696.44
2023-03-29T01:36:42.646Z,100692.94
2023-03-29T01:38:09.914Z,100687.09
2023-03-29T01:39:36.511Z,100688.59
2023-03-29T01:40:58.383Z,100688.81
2023-03-29T01:42:31.882Z,100693.13
2023-03-29T01:44:00.334Z,100694.75
2023-03-29T01:45:25.256Z,100692.19
2023-03-29T01:46:53.838Z,100686.88
2023-03-29T01:48:20.312Z,100687.63
2023-03-29T01:49:48.082Z,100686.88
2023-03-29T01:51:14.594Z,100684.34
2023-03-29T01:52:40.638Z,100681.78
2023-03-29T01:54:09.324Z,100670.75
2023-03-29T01:55:35.057Z,100686.03
2023-03-29T01:57:01.253Z,100691.34
2023-03-29T01:58:29.866Z,100680.97
2023-03-29T01:59:57.695Z,100682.63
2023-03-29T02:01:23.422Z,100686.25
2023-03-29T02:02:47.169Z,100686.25
2023-03-29T02:04:14.280Z,100687.09
2023-03-29T02:05:38.058Z,100678.50
2023-03-29T02:07:02.063Z,100679.56
2023-03-29T02:08:24.393Z,100679.34
2023-03-29T02:09:47.118Z,100685.41
2023-03-29T02:11:11.600Z,100686.25
2023-03-29T02:12:37.320Z,100690.78
2023-03-29T02:13:59.421Z,100691.63
2023-03-29T02:15:23.587Z,100687.28
2023-03-29T02:16:46.679Z,100692.59
2023-03-29T02:18:08.178Z,100679.44
2023-03-29T02:19:30.405Z,100685.63
2023-03-29T02:20:54.287Z,100682.97
2023-03-29T02:22:17.568Z,100680.31
2023-03-29T02:23:45.549Z,100684.75
2023-03-29T02:25:09.887Z,100683.91
2023-03-29T02:26:33.916Z,100683.91
2023-03-29T02:27:57.228Z,100678.59
2023-03-29T02:29:18.436Z,100674.28
2023-03-29T02:30:50.989Z,100671.63
2023-03-29T02:32:18.636Z,100669.06
2023-03-29T02:33:48.126Z,100662.25
2023-03-29T02:35:17.578Z,100682.22
2023-03-29T02:36:46.768Z,100657.19
2023-03-29T02:38:12.578Z,100674.28
2023-03-29T02:39:37.100Z,100673.50
2023-03-29T02:41:03.898Z,100671.81
2023-03-29T02:42:27.802Z,100649.66
2023-03-29T02:43:50.028Z,100666.50
2023-03-29T02:45:16.567Z,100656.97
2023-03-29T02:46:39.894Z,100667.56
2023-03-29T02:48:06.696Z,100657.84
2023-03-29T02:49:28.069Z,100669.16
2023-03-29T02:50:54.856Z,100655.91
2023-03-29T02:52:19.439Z,100659.53
2023-03-29T02:53:44.780Z,100650.06
2023-03-29T02:55:15.042Z,100655.28
2023-03-29T02:56:46.512Z,100655.19
2023-03-29T02:58:08.793Z,100658.56
2023-03-29T02:59:33.452Z,100652.34
2023-03-29T03:00:57.779Z,100654.16
2023-03-29T03:02:20.789Z,100648.31
2023-03-29T03:03:43.048Z,100654.22
2023-03-29T03:05:04.527Z,100645.00
2023-03-29T03:06:29.382Z,100656.66
2023-03-29T03:07:51.982Z,100648.72
2023-03-29T03:09:17.035Z,100649.56
2023-03-29T03:10:43.256Z,100641.75
2023-03-29T03:12:04.657Z,100636.84
2023-03-29T03:13:26.649Z,100647.81
2023-03-29T03:14:49.945Z,100638.16
2023-03-29T03:16:12.315Z,100633.69
2023-03-29T03:17:40.035Z,100639.66
2023-03-29T03:19:02.338Z,100644.19
2023-03-29T03:20:26.826Z,100631.72
2023-03-29T03:21:51.063Z,100630.03
2023-03-29T03:23:15.143Z,100620.78
2023-03-29T03:24:37.363Z,100639.44
2023-03-29T03:26:00.144Z,100628.22
2023-03-29T03:27:22.274Z,100631.41
2023-03-29T03:28:44.150Z,100622.50
2023-03-29T03:30:19.445Z,100629.41
2023-03-29T03:32:15.738Z,100617.53
2023-03-29T03:34:04.457Z,100629.31
2023-03-29T03:35:41.747Z,100610.34
2023-03-29T03:37:13.933Z,100625.59
2023-03-29T03:38:39.432Z,100598.06
2023-03-29T03:40:01.983Z,100611.53
2023-03-29T03:41:26.662Z,100597.63
2023-03-29T03:42:49.593Z,100609.50
2023-03-29T03:44:13.415Z,100606.13
2023-03-29T03:45:37.443Z,100591.50
2023-03-29T03:47:09.938Z,100595.13
2023-03-29T03:48:34.601Z,100602.31
2023-03-29T03:50:19.994Z,100580.91
2023-03-29T03:51:45.570Z,100595.44
2023-03-29T03:53:09.437Z,100602.31
2023-03-29T03:54:50.423Z,100595.44
2023-03-29T03:56:38.780Z,100591.94
2023-03-29T03:58:29.627Z,100597.13
2023-03-29T03:59:52.446Z,100593.63
2023-03-29T04:01:24.087Z,100601.34
2023-03-29T04:02:57.749Z,100592.78
2023-03-29T04:04:19.887Z,100592.50
2023-03-29T04:06:03.902Z,100603.06
2023-03-29T04:07:42.790Z,100596.94
2023-03-29T04:09:22.765Z,100593.31
2023-03-29T04:10:58.505Z,100596.81
2023-03-29T04:12:26.250Z,100597.78
2023-03-29T04:13:48.055Z,100597.88
2023-03-29T04:15:39.319Z,100593.41
2023-03-29T04:17:07.475Z,100595.00
2023-03-29T04:18:44.232Z,100583.69
2023-03-29T04:20:11.729Z,100592.38
2023-03-29T04:21:38.525Z,100593.03
2023-03-29T04:23:00.666Z,100588.47
2023-03-29T04:24:24.830Z,100584.88
2023-03-29T04:26:07.840Z,100577.88
2023-03-29T04:27:42.746Z,100574.56
2023-03-29T04:29:19.037Z,100583.59
2023-03-29T04:30:48.399Z,100575.88
2023-03-29T04:32:15.223Z,100586.16
2023-03-29T04:33:51.697Z,100579.34
2023-03-29T04:35:14.894Z,100580.19
2023-03-29T04:36:37.382Z,100591.44
2023-03-29T04:38:04.553Z,100570.78
2023-03-29T04:39:34.075Z,100580.94
2023-03-29T04:40:59.292Z,100580.84
2023-03-29T04:42:42.487Z,100580.94
2023-03-29T04:44:04.656Z,100577.34
2023-03-29T04:45:27.564Z,100586.78
2023-03-29T04:47:05.134Z,100586.69
2023-03-29T04:50:36.346Z,100572.16
2023-03-29T04:51:57.740Z,100588.19
2023-03-29T04:53:23.391Z,100580.41
2023-03-29T04:54:47.024Z,100588.91
2023-03-29T04:56:20.052Z,100594.84
2023-03-29T04:58:06.491Z,100588.72
2023-03-29T04:59:32.714Z,100597.41
2023-03-29T05:00:58.290Z,100593.69
2023-03-29T05:02:24.733Z,100596.22
2023-03-29T05:03:47.394Z,100595.47
2023-03-29T05:05:28.164Z,100593.69
2023-03-29T05:08:44.748Z,100577.38
2023-03-29T05:10:50.316Z,100581.50
2023-03-29T05:12:13.173Z,100578.97
2023-03-29T05:13:55.273Z,100589.13
2023-03-29T05:15:22.228Z,100569.63
2023-03-29T05:16:45.154Z,100585.63
2023-03-29T05:18:07.255Z,100588.28
2023-03-29T05:19:29.850Z,100583.81
2023-03-29T05:20:53.150Z,100578.75
2023-03-29T05:22:21.824Z,100584.69
2023-03-29T05:23:45.027Z,100584.69
2023-03-29T05:25:06.921Z,100582.03
2023-03-29T05:26:29.781Z,100587.97
2023-03-29T05:27:53.236Z,100578.66
2023-03-29T05:29:14.655Z,100580.84
2023-03-29T05:30:40.701Z,100584.25
2023-03-29T05:32:10.069Z,100578.09
2023-03-29T05:33:37.388Z,100577.91
2023-03-29T05:35:00.578Z,100577.97
2023-03-29T05:36:22.314Z,100579.78
2023-03-29T05:37:48.504Z,100571.75
2023-03-29T05:39:11.178Z,100567.81
2023-03-29T05:40:36.095Z,100581.28
2023-03-29T05:42:32.977Z,100566.88
2023-03-29T05:44:00.910Z,100583.94
2023-03-29T05:45:24.862Z,100590.72
2023-03-29T05:46:46.457Z,100580.84
2023-03-29T05:48:11.879Z,100579.69
2023-03-29T05:49:38.175Z,100575.88
2023-03-29T05:51:17.534Z,100569.63
2023-03-29T05:52:41.154Z,100568.31
2023-03-29T05:54:04.776Z,100564.75
2023-03-29T05:55:27.165Z,100573.09
2023-03-29T05:56:49.241Z,100565.25
2023-03-29T05:58:12.451Z,100576.06
2023-03-29T05:59:35.596Z,100563.13
2023-03-29T06:01:00.787Z,100570.22
2023-03-29T06:02:46.607Z,100566.38
2023-03-29T06:04:09.333Z,100562.53
2023-03-29T06:05:41.152Z,100559.56
2023-03-29T06:07:05.116Z,100558.03
2023-03-29T06:08:28.715Z,100561.94
2023-03-29T06:10:00.620Z,100553.22
2023-03-29T06:11:26.422Z,100556.06
2023-03-29T06:13:12.069Z,100554.91
2023-03-29T06:14:34.637Z,100556.41
2023-03-29T06:16:19.063Z,100564.56
2023-03-29T06:17:40.784Z,100556.53
2023-03-29T06:19:02.296Z,100553.19
2023-03-29T06:20:25.619Z,100553.47
2023-03-29T06:21:54.388Z,100558.16
2023-03-29T06:23:22.425Z,100559.38
2023-03-29T06:24:44.920Z,100557.16
2023-03-29T06:26:20.164Z,100557.38
2023-03-29T06:27:43.158Z,100557.84
2023-03-29T06:29:05.878Z,100558.88
2023-03-29T06:30:29.008Z,100551.03
2023-03-29T06:31:51.937Z,100547.28
2023-03-29T06:33:34.239Z,100547.88
2023-03-29T06:35:16.636Z,100553.75
2023-03-29T06:36:47.804Z,100546.09
2023-03-29T06:38:11.252Z,100549.72
2023-03-29T06:39:57.105Z,100554.16
2023-03-29T06:41:34.732Z,100552.81
2023-03-29T06:43:02.490Z,100544.25
2023-03-29T06:44:28.500Z,100544.69
2023-03-29T06:45:59.182Z,100538.91
2023-03-29T06:47:31.679Z,100533.38
2023-03-29T06:48:53.992Z,100540.63
2023-03-29T06:50:21.293Z,100536.59
2023-03-29T06:51:58.322Z,100539.28
2023-03-29T06:53:20.431Z,100536.22
2023-03-29T06:54:50.598Z,100526.91
2023-03-29T06:56:14.723Z,100536.16
2023-03-29T06:57:40.122Z,100534.00
2023-03-29T06:59:02.718Z,100520.56
2023-03-29T07:00:42.405Z,100530.97
2023-03-29T07:02:13.582Z,100528.22
2023-03-29T07:03:57.359Z,100520.56
2023-03-29T07:05:28.006Z,100525.84
2023-03-29T07:06:58.874Z,100538.22
2023-03-29T07:08:21.435Z,100522.66
2023-03-29T07:09:55.653Z,100527.06
2023-03-29T07:11:36.787Z,100517.13
2023-03-29T07:13:27.752Z,100514.97
2023-03-29T07:14:56.399Z,100525.41
2023-03-29T07:16:22.539Z,100523.72
2023-03-29T07:18:05.946Z,100525.91
2023-03-29T07:19:30.331Z,100528.75
2023-03-29T07:21:04.236Z,100523.34
2023-03-29T07:22:31.332Z,100531.06
2023-03-29T07:23:57.221Z,100529.53
2023-03-29T07:25:20.385Z,100522.59
2023-03-29T07:26:52.137Z,100511.50
2023-03-29T07:28:38.975Z,100532.63
2023-03-29T07:30:12.156Z,100519.94
2023-03-29T07:31:46.890Z,100512.13
2023-03-29T07:33:48.751Z,100510.09
2023-03-29T07:35:48.281Z,100520.50
2023-03-29T07:37:36.567Z,100511.69
2023-03-29T07:39:04.011Z,100515.75
2023-03-29T07:40:36.975Z,100520.28
2023-03-29T07:45:36.705Z,100517.88
2023-03-29T07:47:26.257Z,100515.31
2023-03-29T07:48:48.755Z,100516.50
2023-03-29T07:50:13.717Z,100510.38
2023-03-29T07:51:37.224Z,100510.25
2023-03-29T07:53:03.973Z,100509.50
2023-03-29T07:54:28.857Z,100513.13
2023-03-29T07:56:10.378Z,100511.50
2023-03-29T07:57:55.729Z,100515.31
2023-03-29T07:59:17.788Z,100519.34
2023-03-29T08:00:45.497Z,100512.47
2023-03-29T08:02:29.864Z,100517.28
2023-03-29T08:03:56.935Z,100512.16
2023-03-29T08:05:40.803Z,100507.63
2023-03-29T08:07:09.478Z,100504.16
2023-03-29T08:09:01.553Z,100504.69
2023-03-29T08:10:23.047Z,100498.25
2023-03-29T08:11:59.947Z,100497.25
2023-03-29T08:13:28.648Z,100506.03
2023-03-29T08:15:16.168Z,100507.09
2023-03-29T08:18:36.415Z,100488.66
2023-03-29T08:20:02.499Z,100507.69
2023-03-29T08:21:24.658Z,100496.22
2023-03-29T08:22:50.440Z,100505.66
2023-03-29T08:24:26.585Z,100485.53
2023-03-29T08:25:53.656Z,100499.25
2023-03-29T08:27:15.864Z,100502.16
2023-03-29T08:28:41.012Z,100480.97
2023-03-29T08:30:05.315Z,100490.25
2023-03-29T08:31:29.829Z,100489.03
2023-03-29T08:32:55.409Z,100480.88
2023-03-29T08:34:18.183Z,100483.34
2023-03-29T08:35:42.315Z,100491.28
2023-03-29T08:37:11.181Z,100488.28
2023-03-29T08:38:37.749Z,100487.84
2023-03-29T08:40:00.376Z,100483.88
2023-03-29T08:41:42.176Z,100488.94
2023-03-29T08:43:22.416Z,100480.94
2023-03-29T08:45:14.744Z,100482.06
2023-03-29T08:46:45.881Z,100481.78
2023-03-29T08:48:35.604Z,100480.72
2023-03-29T08:50:02.021Z,100474.38
2023-03-29T08:51:38.238Z,100477.56
2023-03-29T08:53:05.975Z,100478.91
2023-03-29T08:54:51.836Z,100476.41
2023-03-29T08:56:42.068Z,100489.91
2023-03-29T08:58:19.652Z,100487.97
2023-03-29T08:59:43.732Z,100493.78
2023-03-29T09:01:11.472Z,100496.97
2023-03-29T09:02:47.182Z,100494.69
2023-03-29T09:04:15.271Z,100502.72
2023-03-29T09:05:49.550Z,100490.88
2023-03-29T09:07:26.638Z,100490.84
2023-03-29T09:08:53.817Z,100508.94
2023-03-29T09:10:54.984Z,100509.16
2023-03-29T09:12:27.652Z,100493.84
2023-03-29T09:13:59.810Z,100502.78
2023-03-29T09:15:25.471Z,100499.56
2023-03-29T09:16:57.174Z,100503.13
2023-03-29T09:18:25.631Z,100498.38
2023-03-29T09:19:56.154Z,100500.22
2023-03-29T09:21:23.955Z,100495.13
2023-03-29T09:22:53.479Z,100497.06
2023-03-29T09:24:39.131Z,100494.88
2023-03-29T09:26:18.837Z,100492.63
2023-03-29T09:28:22.618Z,100491.00
2023-03-29T09:29:59.713Z,100484.78
2023-03-29T09:31:44.600Z,100486.66
2023-03-29T09:33:14.236Z,100484.81
2023-03-29T09:35:03.447Z,100482.00
2023-03-29T09:36:42.102Z,100489.06
2023-03-29T09:38:05.660Z,100486.66
2023-03-29T09:39:31.407Z,100482.97
2023-03-29T09:41:21.387Z,100486.81
2023-03-29T09:42:46.158Z,100479.63
2023-03-29T09:44:23.980Z,100472.41
2023-03-29T09:45:57.997Z,100475.56
2023-03-29T09:47:26.397Z,100469.53
2023-03-29T09:48:51.834Z,100468.19
2023-03-29T09:50:30.967Z,100461.38
2023-03-29T09:52:00.996Z,100467.41
2023-03-29T09:53:23.544Z,100466.69
2023-03-29T09:55:07.861Z,100458.41
2023-03-29T09:56:45.585Z,100458.53
2023-03-29T09:58:16.273Z,100451.81
2023-03-29T09:59:42.984Z,100454.31
2023-03-29T10:01:10.404Z,100450.34
2023-03-29T10:02:33.506Z,100452.22
2023-03-29T10:03:55.502Z,100453.03
2023-03-29T10:05:20.053Z,100436.03
2023-03-29T10:06:49.290Z,100440.13
2023-03-29T10:08:20.060Z,100440.69
2023-03-29T10:09:44.801Z,100432.25
2023-03-29T10:11:16.368Z,100437.22
2023-03-29T10:12:38.869Z,100434.09
2023-03-29T10:14:04.424Z,100435.06
2023-03-29T10:15:30.126Z,100427.41
2023-03-29T10:16:57.501Z,100419.63
2023-03-29T10:18:19.380Z,100419.03
2023-03-29T10:19:50.467Z,100416.56
2023-03-29T10:21:16.826Z,100417.91
2023-03-29T10:22:40.889Z,100407.53
2023-03-29T10:24:02.787Z,100408.78
2023-03-29T10:25:26.551Z,100416.91
2023-03-29T10:26:49.464Z,100413.06
2023-03-29T10:28:16.282Z,100405.84
2023-03-29T10:29:41.211Z,100403.50
2023-03-29T10:31:04.207Z,100408.75
2023-03-29T10:32:31.776Z,100400.97
2023-03-29T10:33:55.621Z,100400.63
2023-03-29T10:35:24.173Z,100402.66
2023-03-29T10:36:54.776Z,100405.47
2023-03-29T10:38:19.759Z,100402.97
2023-03-29T10:39:41.944Z,100407.66
2023-03-29T10:41:10.168Z,100396.91
2023-03-29T10:42:32.854Z,100393.59
2023-03-29T10:43:57.138Z,100395.53
2023-03-29T10:45:27.706Z,100378.91
2023-03-29T10:46:49.965Z,100391.84
2023-03-29T10:48:14.127Z,100391.19
2023-03-29T10:50:06.121Z,100391.25
2023-03-29T10:51:31.500Z,100378.13
2023-03-29T10:52:55.301Z,100380.59
2023-03-29T10:54:21.060Z,100378.78
2023-03-29T10:55:56.022Z,100370.38
2023-03-29T10:57:32.696Z,100376.59
2023-03-29T10:59:22.064Z,100376.91
2023-03-29T11:00:48.492Z,100376.13
2023-03-29T11:02:43.413Z,100374.72
2023-03-29T11:04:17.575Z,100372.84
2023-03-29T11:05:46.569Z,100369.66
2023-03-29T11:07:27.292Z,100377.66
2023-03-29T11:08:57.573Z,100360.03
2023-03-29T11:10:32.338Z,100361.59
2023-03-29T11:12:31.565Z,100370.75
2023-03-29T11:14:00.060Z,100363.25
2023-03-29T11:15:35.440Z,100361.22
2023-03-29T11:17:09.579Z,100359.25
2023-03-29T11:18:54.888Z,100357.09
2023-03-29T11:20:29.658Z,100355.91
2023-03-29T11:22:00.440Z,100350.22
2023-03-29T11:23:39.970Z,100354.25
2023-03-29T11:25:19.033Z,100346.28
2023-03-29T11:26:53.870Z,100344.16
2023-03-29T11:28:25.610Z,100341.41
2023-03-29T11:29:59.417Z,100339.16
2023-03-29T11:31:34.478Z,100342.81
2023-03-29T11:33:07.090Z,100337.25
2023-03-29T11:34:38.015Z,100333.44
2023-03-29T11:36:06.874Z,100332.72
2023-03-29T11:37:36.109Z,100326.16
2023-03-29T11:39:05.556Z,100324.69
2023-03-29T11:40:44.814Z,100318.59
2023-03-29T11:42:13.166Z,100329.72
2023-03-29T11:43:39.581Z,100324.81
2023-03-29T11:45:08.291Z,100313.84
2023-03-29T11:46:36.547Z,100312.97
2023-03-29T11:48:12.320Z,100306.00
2023-03-29T11:49:42.568Z,100295.78
2023-03-29T11:51:12.130Z,100306.47
2023-03-29T11:52:39.175Z,100297.59
2023-03-29T11:54:07.124Z,100290.94
2023-03-29T11:55:33.743Z,100298.06
2023-03-29T11:57:02.839Z,100290.34
2023-03-29T11:58:31.298Z,100293.63
2023-03-29T12:00:00.280Z,100288.13
2023-03-29T12:01:34.774Z,100297.59
2023-03-29T12:03:01.404Z,100288.22
2023-03-29T12:04:28.771Z,100282.59
2023-03-29T12:05:56.853Z,100279.84
2023-03-29T12:07:25.336Z,100283.13
2023-03-29T12:08:54.103Z,100289.47
2023-03-29T12:10:21.231Z,100284.75
2023-03-29T12:11:54.204Z,100282.94
2023-03-29T12:13:20.704Z,100278.25
2023-03-29T12:14:57.897Z,100278.47
2023-03-29T12:16:27.740Z,100282.47
2023-03-29T12:17:56.274Z,100281.91
2023-03-29T12:19:22.981Z,100280.97
2023-03-29T12:20:49.884Z,100277.47
2023-03-29T12:22:12.957Z,100273.81
2023-03-29T12:23:39.733Z,100268.63
2023-03-29T12:25:10.364Z,100272.47
2023-03-29T12:26:53.898Z,100269.03
2023-03-29T12:28:58.201Z,100257.81
2023-03-29T12:33:48.835Z,100264.44
2023-03-29T12:35:56.239Z,100237.22
2023-03-29T12:40:21.743Z,100243.75
2023-03-29T12:45:09.409Z,100251.94
2023-03-29T12:46:37.238Z,100237.16
2023-03-29T12:48:30.450Z,100247.41
2023-03-29T12:50:03.968Z,100239.75
2023-03-29T12:51:43.128Z,100253.25
2023-03-29T12:56:39.971Z,100232.41
2023-03-29T12:58:30.455Z,100224.41
2023-03-29T13:00:36.906Z,100222.47
2023-03-29T13:02:48.981Z,100237.16
2023-03-29T13:11:06.971Z,100216.22
2023-03-29T13:13:03.504Z,100213.91
2023-03-29T13:15:24.259Z,100223.13
2023-03-29T13:18:16.097Z,100222.75
2023-03-29T13:20:40.822Z,100219.78
2023-03-29T13:22:17.527Z,100216.59
2023-03-29T13:23:50.503Z,100201.72
2023-03-29T13:27:20.930Z,100201.72
2023-03-29T13:29:23.927Z,100210.84
2023-03-29T13:31:00.365Z,100219.75
2023-03-29T13:32:55.407Z,100196.06
2023-03-29T13:35:11.240Z,100208.06
2023-03-29T13:39:43.007Z,100200.34
2023-03-29T13:41:28.483Z,100200.34
2023-03-29T13:56:59.902Z,100184.91
2023-03-29T13:59:03.222Z,100170.69
2023-03-29T14:00:59.208Z,100191.06
2023-03-29T14:03:13.848Z,100179.91
2023-03-29T14:05:37.055Z,100191.88
2023-03-29T14:12:24.013Z,100172.38
2023-03-29T14:21:20.193Z,100158.13
2023-03-29T14:23:35.241Z,100173.75
2023-03-29T14:25:16.692Z,100182.22
2023-03-29T14:27:09.144Z,100161.69
2023-03-29T14:31:44.812Z,100184.25
2023-03-29T14:33:20.031Z,100176.63
2023-03-29T14:34:48.831Z,100182.47
2023-03-29T14:36:22.579Z,100181.44
2023-03-29T14:38:28.172Z,100178.91
2023-03-29T14:47:20.469Z,100160.59
2023-03-29T14:55:49.779Z,100151.16
2023-03-29T14:57:58.669Z,100137.41
2023-03-29T15:00:15.816Z,100143.91
2023-03-29T15:02:44.079Z,100167.09
2023-03-29T16:13:55.467Z,100154.59
2023-03-29T16:22:48.538Z,100126.59
2023-03-29T16:38:24.673Z,100149.53
2023-03-29T16:39:51.907Z,100144.00
2023-03-29T16:41:20.178Z,100151.06
2023-03-29T16:43:29.209Z,100141.19
2023-03-29T16:45:06.155Z,100149.56
2023-03-29T16:48:43.567Z,100135.63
2023-03-29T16:50:08.551Z,100145.88
2023-03-29T16:51:39.994Z,100140.47
2023-03-29T16:53:37.531Z,100149.06
2023-03-29T16:55:02.609Z,100132.63
2023-03-29T16:56:28.459Z,100143.00
2023-03-29T16:57:51.355Z,100129.63
2023-03-29T16:59:19.731Z,100128.09
2023-03-29T17:00:42.046Z,100141.84
2023-03-29T17:02:06.901Z,100134.78
2023-03-29T17:03:30.527Z,100132.97
2023-03-29T17:04:54.092Z,100139.84
2023-03-29T17:06:19.818Z,100139.84
2023-03-29T17:07:43.582Z,100140.19
2023-03-29T17:09:21.650Z,100145.22
2023-03-29T17:13:43.052Z,100143.03
2023-03-29T17:14:34.906Z,100141.88
2023-03-29T17:16:37.150Z,100134.84
2023-03-29T17:18:15.749Z,100128.97
2023-03-29T17:19:51.778Z,100140.56
2023-03-29T17:21:14.126Z,100129.50
2023-03-29T17:22:38.726Z,100115.91
2023-03-29T17:24:04.765Z,100119.09
2023-03-29T17:25:40.825Z,100112.56
2023-03-29T17:27:03.396Z,100121.25
2023-03-29T17:28:31.988Z,100129.16
2023-03-29T17:29:54.991Z,100117.41
2023-03-29T17:31:19.693Z,100132.50
2023-03-29T17:32:45.966Z,100110.88
2023-03-29T17:34:12.235Z,100119.25
2023-03-29T17:35:36.360Z,100117.06
2023-03-29T17:37:04.842Z,100110.75
2023-03-29T17:38:30.767Z,100108.88
2023-03-29T17:39:57.069Z,100110.75
2023-03-29T17:41:35.618Z,100128.16
2023-03-29T17:43:06.144Z,100118.59
2023-03-29T17:44:35.975Z,100127.31
2023-03-29T17:46:01.858Z,100112.91
2023-03-29T17:47:24.187Z,100123.97
2023-03-29T17:48:49.042Z,100127.66
2023-03-29T17:50:13.058Z,100123.28
2023-03-29T17:51:37.100Z,100111.75
2023-03-29T17:53:07.091Z,100116.09
2023-03-29T17:54:29.467Z,100113.59
2023-03-29T17:55:57.440Z,100117.25
2023-03-29T17:57:20.201Z,100121.78
2023-03-29T17:58:49.248Z,100114.25
2023-03-29T18:00:14.375Z,100115.94
2023-03-29T18:01:39.652Z,100115.41
2023-03-29T18:03:02.630Z,100129.84
2023-03-29T18:04:31.664Z,100138.72
2023-03-29T18:05:56.525Z,100138.03
2023-03-29T18:07:21.352Z,100126.50
2023-03-29T18:08:46.044Z,100124.81
2023-03-29T18:10:15.910Z,100141.75
2023-03-29T18:14:38.566Z,100132.84
2023-03-29T18:16:01.904Z,100133.19
2023-03-29T18:17:30.078Z,100127.47
2023-03-29T18:19:05.922Z,100124.81
2023-03-29T18:20:39.400Z,100135.03
2023-03-29T18:22:02.201Z,100135.19
2023-03-29T18:23:30.221Z,100138.56
2023-03-29T18:25:13.841Z,100131.19
2023-03-29T18:27:16.034Z,100128.31
2023-03-29T18:28:42.886Z,100136.72
2023-03-29T18:30:16.967Z,100131.16
2023-03-29T18:31:42.975Z,100146.44
2023-03-29T18:33:47.268Z,100149.28
2023-03-29T18:42:40.939Z,100142.06
2023-03-29T19:00:21.644Z,100138.66
2023-03-29T19:01:53.484Z,100133.97
2023-03-29T19:05:09.677Z,100125.59
2023-03-29T19:06:28.036Z,100140.16
2023-03-29T19:07:50.642Z,100123.94
2023-03-29T19:11:41.168Z,100125.09
2023-03-29T19:20:25.893Z,100121.41
2023-03-29T19:22:09.268Z,100114.34
2023-03-29T19:24:52.960Z,100111.84
2023-03-29T19:30:02.300Z,100119.75
2023-03-29T19:44:08.543Z,100106.28
2023-03-29T19:46:41.590Z,100122.22
2023-03-29T19:52:23.118Z,100112.69
2023-03-29T19:54:35.124Z,100104.31
2023-03-29T20:02:45.778Z,100089.38
2023-03-29T20:06:43.039Z,100084.38
2023-03-29T20:18:23.250Z,100103.13
2023-03-29T21:45:07.474Z,100025.75
2023-03-29T21:56:34.852Z,100007.91
2023-03-29T21:58:45.091Z,100007.56
2023-03-29T22:01:40.504Z,100014.25
2023-03-29T22:05:41.668Z,100013.63
2023-03-29T22:07:24.480Z,100001.75
2023-03-29T22:09:39.908Z,100006.44
2023-03-29T22:11:14.084Z,99995.25
2023-03-29T22:31:35.510Z,99969.03
2023-03-29T23:33:50.121Z,99942.97
2023-03-29T23:43:20.763Z,99940.44
2023-03-29T23:50:48.663Z,99933.78
